Terminal Aerodrome Forecast
Issued by NWS Paducah, KY

Home | Current Version | Previous Version | Text Only | Print | Product List | Glossary On
Versions: 1 2 3 4 5 6 7 8 9 10 11 12 13 14 15 16 17 18 19 20
000
FTUS43 KPAH 262000 AAA
TAFPAH
TAF AMD
KPAH 262021Z 2620/2718 25008KT P6SM BKN025
     FM270000 VRB04KT P6SM BKN025
     FM270600 32006KT P6SM SCT025 BKN040
     FM271500 35008KT P6SM BKN030=

USA.gov is the U.S. government's official web portal to all federal, state and local government web resources and services.